createdAt,value
2022-07-26T00:00:23.703Z,7.10
2022-07-26T00:02:50.065Z,5.00
2022-07-26T00:05:03.145Z,8.40
2022-07-26T00:07:16.220Z,7.70
2022-07-26T00:09:29.188Z,6.00
2022-07-26T00:11:42.356Z,7.30
2022-07-26T00:13:55.516Z,5.10
2022-07-26T00:16:10.277Z,7.00
2022-07-26T00:18:23.906Z,7.00
2022-07-26T00:20:38.086Z,7.60
2022-07-26T00:22:51.993Z,9.70
2022-07-26T00:25:05.175Z,8.30
2022-07-26T00:27:18.580Z,7.20
2022-07-26T00:29:31.577Z,7.20
2022-07-26T00:31:44.858Z,7.40
2022-07-26T00:33:57.936Z,8.20
2022-07-26T00:36:12.078Z,7.80
2022-07-26T00:38:25.135Z,8.70
2022-07-26T00:40:38.306Z,7.30
2022-07-26T00:42:51.398Z,7.70
2022-07-26T00:45:04.494Z,9.30
2022-07-26T00:47:18.075Z,9.10
2022-07-26T00:49:31.020Z,8.80
2022-07-26T00:51:46.462Z,9.40
2022-07-26T00:53:59.784Z,10.60
2022-07-26T00:56:13.196Z,11.40
2022-07-26T00:58:26.202Z,8.00
2022-07-26T01:00:39.384Z,8.40
2022-07-26T01:02:53.257Z,6.50
2022-07-26T01:05:06.777Z,9.50
2022-07-26T01:07:20.110Z,10.30
2022-07-26T01:09:33.514Z,10.30
2022-07-26T01:11:47.129Z,9.60
2022-07-26T01:14:00.155Z,9.00
2022-07-26T01:16:13.874Z,10.10
2022-07-26T01:18:26.984Z,12.80
2022-07-26T01:20:40.090Z,11.10
2022-07-26T01:22:53.541Z,11.90
2022-07-26T01:25:06.800Z,12.10
2022-07-26T01:27:19.911Z,11.50
2022-07-26T01:29:35.409Z,16.70
2022-07-26T01:31:49.509Z,9.10
2022-07-26T01:34:02.759Z,9.10
2022-07-26T01:36:16.066Z,8.20
2022-07-26T01:38:29.071Z,9.30
2022-07-26T01:40:42.001Z,7.70
2022-07-26T01:42:55.016Z,9.00
2022-07-26T01:45:08.330Z,7.40
2022-07-26T01:47:21.437Z,8.30
2022-07-26T01:49:34.795Z,10.60
2022-07-26T01:51:47.800Z,9.00
2022-07-26T01:54:00.860Z,10.30
2022-07-26T01:56:14.473Z,7.80
2022-07-26T01:58:27.781Z,9.90
2022-07-26T02:00:40.937Z,9.40
2022-07-26T02:02:54.048Z,9.80
2022-07-26T02:05:07.303Z,7.30
2022-07-26T02:07:20.385Z,10.10
2022-07-26T02:09:39.600Z,10.90
2022-07-26T02:11:52.991Z,9.90
2022-07-26T02:14:06.536Z,11.20
2022-07-26T02:16:21.064Z,9.60
2022-07-26T02:18:35.107Z,10.10
2022-07-26T02:20:48.112Z,9.90
2022-07-26T02:23:01.219Z,10.80
2022-07-26T02:25:15.161Z,8.80
2022-07-26T02:27:28.227Z,9.40
2022-07-26T02:29:41.301Z,14.10
2022-07-26T02:31:55.095Z,12.80
2022-07-26T02:34:08.327Z,13.90
2022-07-26T02:36:21.618Z,10.00
2022-07-26T02:38:35.888Z,11.70
2022-07-26T02:40:51.652Z,9.60
2022-07-26T02:43:04.740Z,11.10
2022-07-26T02:45:18.077Z,11.30
2022-07-26T02:47:31.723Z,12.20
2022-07-26T02:49:44.885Z,12.70
2022-07-26T02:51:57.863Z,11.40
2022-07-26T02:54:11.646Z,13.00
2022-07-26T02:56:25.452Z,13.30
2022-07-26T02:58:38.493Z,13.50
2022-07-26T03:00:51.665Z,11.30
2022-07-26T03:03:04.700Z,12.30
2022-07-26T03:05:18.620Z,11.50
2022-07-26T03:07:31.849Z,13.80
2022-07-26T03:09:44.912Z,11.70
2022-07-26T03:11:58.379Z,8.10
2022-07-26T03:14:11.948Z,9.90
2022-07-26T03:16:29.386Z,9.00
2022-07-26T03:18:42.702Z,8.80
2022-07-26T03:20:56.524Z,10.60
2022-07-26T03:23:09.597Z,11.30
2022-07-26T03:25:22.740Z,10.00
2022-07-26T03:27:35.723Z,8.90
2022-07-26T03:29:48.759Z,10.80
2022-07-26T03:32:01.849Z,10.20
2022-07-26T03:34:14.938Z,12.20
2022-07-26T03:36:28.541Z,11.10
2022-07-26T03:38:41.748Z,14.20
2022-07-26T03:40:54.832Z,12.60
2022-07-26T03:43:08.032Z,12.70
2022-07-26T03:45:21.836Z,10.30
2022-07-26T03:47:34.846Z,13.90
2022-07-26T03:49:47.823Z,11.00
2022-07-26T03:52:00.853Z,10.40
2022-07-26T03:54:14.855Z,11.00
2022-07-26T03:56:34.820Z,10.20
2022-07-26T03:58:47.883Z,15.00
2022-07-26T04:01:01.202Z,19.60
2022-07-26T04:03:14.423Z,20.40
2022-07-26T04:05:27.519Z,23.60
2022-07-26T04:07:51.511Z,27.30
2022-07-26T04:10:05.907Z,25.00
2022-07-26T04:12:19.125Z,28.70
2022-07-26T04:14:32.607Z,28.10
2022-07-26T04:16:45.737Z,28.50
2022-07-26T04:18:58.927Z,30.20
2022-07-26T04:21:12.371Z,29.90
2022-07-26T04:23:25.515Z,29.50
2022-07-26T04:25:41.424Z,29.90
2022-07-26T04:27:54.742Z,29.60
2022-07-26T04:30:14.034Z,29.60
2022-07-26T04:32:44.228Z,23.90
2022-07-26T04:35:00.638Z,24.30
2022-07-26T04:37:13.670Z,23.10
2022-07-26T04:39:27.004Z,26.00
2022-07-26T04:41:40.048Z,31.10
2022-07-26T04:43:53.132Z,30.50
2022-07-26T04:46:06.719Z,27.70
2022-07-26T04:48:20.252Z,24.40
2022-07-26T04:50:33.388Z,24.40
2022-07-26T04:52:46.459Z,22.00
2022-07-26T04:55:00.093Z,19.60
2022-07-26T04:57:13.132Z,18.00
2022-07-26T04:59:26.148Z,13.30
2022-07-26T05:01:39.248Z,25.30
2022-07-26T05:03:52.269Z,67.00
2022-07-26T05:06:05.422Z,89.40
2022-07-26T05:08:20.942Z,80.30
2022-07-26T05:10:37.635Z,70.70
2022-07-26T05:12:51.620Z,57.10
2022-07-26T05:15:04.738Z,51.90
2022-07-26T05:17:18.110Z,46.70
2022-07-26T05:19:33.300Z,36.70
2022-07-26T05:21:46.429Z,36.40
2022-07-26T05:23:59.651Z,28.90
2022-07-26T05:26:14.238Z,27.40
2022-07-26T05:28:27.395Z,16.80
2022-07-26T05:30:40.453Z,11.10
2022-07-26T05:32:53.709Z,11.30
2022-07-26T05:35:06.768Z,10.70
2022-07-26T05:37:19.811Z,11.30
2022-07-26T05:39:33.504Z,13.90
2022-07-26T05:41:46.533Z,16.20
2022-07-26T05:44:00.162Z,19.20
2022-07-26T05:46:13.604Z,20.00
2022-07-26T05:48:26.779Z,20.10
2022-07-26T05:50:40.027Z,19.90
2022-07-26T05:52:53.030Z,18.10
2022-07-26T05:55:06.156Z,18.70
2022-07-26T05:57:19.096Z,17.80
2022-07-26T05:59:32.363Z,17.20
2022-07-26T06:01:45.431Z,20.20
2022-07-26T06:03:58.605Z,39.10
2022-07-26T06:06:12.665Z,37.10
2022-07-26T06:08:26.813Z,46.00
2022-07-26T06:10:39.851Z,43.10
2022-07-26T06:12:53.150Z,45.30
2022-07-26T06:15:15.380Z,39.60
2022-07-26T06:17:31.248Z,37.10
2022-07-26T06:19:47.514Z,33.40
2022-07-26T06:22:00.909Z,26.30
2022-07-26T06:24:14.468Z,20.80
2022-07-26T06:26:27.638Z,23.20
2022-07-26T06:28:41.111Z,23.80
2022-07-26T06:30:54.162Z,25.10
2022-07-26T06:33:07.631Z,30.80
2022-07-26T06:35:21.989Z,34.30
2022-07-26T06:37:35.107Z,38.90
2022-07-26T06:39:50.366Z,35.00
2022-07-26T06:42:03.434Z,41.00
2022-07-26T06:44:16.514Z,87.60
2022-07-26T06:46:29.650Z,96.70
2022-07-26T06:48:47.454Z,89.70
2022-07-26T06:51:06.509Z,79.80
2022-07-26T06:53:19.568Z,69.70
2022-07-26T06:55:32.643Z,59.40
2022-07-26T06:57:50.392Z,53.30
2022-07-26T07:00:03.817Z,43.50
2022-07-26T07:02:16.883Z,29.40
2022-07-26T07:04:30.141Z,26.20
2022-07-26T07:06:43.204Z,26.60
2022-07-26T07:08:58.517Z,29.30
2022-07-26T07:11:12.507Z,31.90
2022-07-26T07:13:26.336Z,27.70
2022-07-26T07:15:39.546Z,27.80
2022-07-26T07:17:52.859Z,27.50
2022-07-26T07:20:06.863Z,28.90
2022-07-26T07:22:19.925Z,23.70
2022-07-26T07:24:32.946Z,24.30
2022-07-26T07:26:46.145Z,26.20
2022-07-26T07:28:59.072Z,22.90
2022-07-26T07:31:17.450Z,22.10
2022-07-26T07:33:36.745Z,23.10
2022-07-26T07:36:05.382Z,10.50
2022-07-26T07:38:18.399Z,8.70
2022-07-26T07:40:32.230Z,6.80
2022-07-26T07:42:45.326Z,6.70
2022-07-26T07:44:58.373Z,6.20
2022-07-26T07:47:11.981Z,4.70
2022-07-26T07:49:25.194Z,6.00
2022-07-26T07:51:38.350Z,6.60
2022-07-26T07:53:56.762Z,6.20
2022-07-26T07:56:11.421Z,6.60
2022-07-26T07:58:28.146Z,6.50
2022-07-26T08:00:41.858Z,10.40
2022-07-26T08:02:54.894Z,14.10
2022-07-26T08:05:14.194Z,13.10
2022-07-26T08:07:32.901Z,15.70
2022-07-26T08:09:49.489Z,19.60
2022-07-26T08:12:02.449Z,20.20
2022-07-26T08:14:15.577Z,21.40
2022-07-26T08:16:31.183Z,13.70
2022-07-26T08:18:56.266Z,14.70
2022-07-26T08:21:10.971Z,9.90
2022-07-26T08:23:26.354Z,11.00
2022-07-26T08:25:50.105Z,15.30
2022-07-26T08:28:15.474Z,13.90
2022-07-26T08:30:42.274Z,20.90
2022-07-26T08:32:55.309Z,19.60
2022-07-26T08:35:17.388Z,17.80
2022-07-26T08:37:32.559Z,17.20
2022-07-26T08:39:45.548Z,16.40
2022-07-26T08:41:58.567Z,12.60
2022-07-26T08:44:15.687Z,8.40
2022-07-26T08:46:29.673Z,8.20
2022-07-26T08:48:42.673Z,6.00
2022-07-26T08:50:56.391Z,6.50
2022-07-26T08:53:10.543Z,9.00
2022-07-26T08:55:25.324Z,9.20
2022-07-26T08:57:38.387Z,11.30
2022-07-26T09:00:11.651Z,12.70
2022-07-26T09:02:25.105Z,14.10
2022-07-26T09:04:44.521Z,14.20
2022-07-26T09:07:07.393Z,7.40
2022-07-26T09:09:20.397Z,7.10
2022-07-26T09:11:37.891Z,8.10
2022-07-26T09:13:59.115Z,9.40
2022-07-26T09:16:18.583Z,5.60
2022-07-26T09:18:35.697Z,7.10
2022-07-26T09:20:53.042Z,6.80
2022-07-26T09:23:08.531Z,4.00
2022-07-26T09:25:32.278Z,6.50
2022-07-26T09:27:45.325Z,6.40
2022-07-26T09:29:59.063Z,8.30
2022-07-26T09:32:23.067Z,6.50
2022-07-26T09:34:36.659Z,4.50
2022-07-26T09:36:58.868Z,3.50
2022-07-26T09:39:12.397Z,3.70
2022-07-26T09:41:27.910Z,4.70
2022-07-26T09:43:44.889Z,4.00
2022-07-26T09:46:09.239Z,4.90
2022-07-26T09:48:59.223Z,5.10
2022-07-26T09:51:06.135Z,4.50
2022-07-26T09:53:19.364Z,4.40
2022-07-26T09:55:42.379Z,3.90
2022-07-26T09:57:58.591Z,4.10
2022-07-26T10:00:14.062Z,4.10
2022-07-26T10:02:27.222Z,4.30
2022-07-26T10:04:40.554Z,24.30
2022-07-26T10:06:53.750Z,36.10
2022-07-26T10:09:07.554Z,36.50
2022-07-26T10:11:22.307Z,25.30
2022-07-26T10:13:35.662Z,28.40
2022-07-26T10:15:50.724Z,25.10
2022-07-26T10:18:03.953Z,21.20
2022-07-26T10:20:51.353Z,15.70
2022-07-26T10:23:04.517Z,9.00
2022-07-26T10:25:51.951Z,9.90
2022-07-26T10:28:11.978Z,6.90
2022-07-26T10:30:35.562Z,6.30
2022-07-26T10:33:00.847Z,6.50
2022-07-26T10:35:35.735Z,5.60
2022-07-26T10:38:04.669Z,6.70
2022-07-26T10:40:31.439Z,8.00
2022-07-26T10:42:51.441Z,6.70
2022-07-26T10:45:23.204Z,5.40
2022-07-26T10:47:36.218Z,5.50
2022-07-26T10:50:02.500Z,5.30
2022-07-26T10:52:19.780Z,5.30
2022-07-26T10:54:33.180Z,5.00
2022-07-26T10:56:46.690Z,5.40
2022-07-26T10:59:00.235Z,5.80
2022-07-26T11:01:13.347Z,5.80
2022-07-26T11:03:26.606Z,4.10
2022-07-26T11:05:39.740Z,4.10
2022-07-26T11:08:01.236Z,3.80
2022-07-26T11:10:15.082Z,4.00
2022-07-26T11:12:28.498Z,3.50
2022-07-26T11:14:45.035Z,4.10
2022-07-26T11:17:01.154Z,3.90
2022-07-26T11:19:25.937Z,3.80
2022-07-26T11:21:39.004Z,4.10
2022-07-26T11:23:53.233Z,4.80
2022-07-26T11:26:22.585Z,3.10
2022-07-26T11:28:45.948Z,4.20
2022-07-26T11:31:04.408Z,4.10
2022-07-26T11:33:19.547Z,3.60
2022-07-26T11:35:32.990Z,3.40
2022-07-26T11:38:02.597Z,3.00
2022-07-26T11:40:22.714Z,4.20
2022-07-26T11:42:35.665Z,3.90
2022-07-26T11:44:55.066Z,4.40
2022-07-26T11:47:17.007Z,3.60
2022-07-26T11:52:05.840Z,3.80
2022-07-26T11:54:18.862Z,4.30
2022-07-26T11:56:33.613Z,3.70
2022-07-26T11:58:48.550Z,4.20
2022-07-26T12:01:01.810Z,4.50
2022-07-26T12:03:14.766Z,4.20
2022-07-26T12:05:31.557Z,4.30
2022-07-26T12:07:55.821Z,3.40
2022-07-26T12:10:09.274Z,4.60
2022-07-26T12:12:29.900Z,8.30
2022-07-26T12:14:43.645Z,7.40
2022-07-26T12:16:56.703Z,4.70
2022-07-26T12:19:11.527Z,6.70
2022-07-26T12:21:24.701Z,36.40
2022-07-26T12:23:52.381Z,23.90
2022-07-26T12:26:25.223Z,5.80
2022-07-26T12:31:00.853Z,3.70
2022-07-26T12:33:13.967Z,11.20
2022-07-26T12:35:36.703Z,8.70
2022-07-26T12:40:12.178Z,12.10
2022-07-26T12:42:36.255Z,8.20
2022-07-26T12:44:49.260Z,3.50
2022-07-26T12:47:02.259Z,2.90
2022-07-26T12:49:15.476Z,3.30
2022-07-26T12:51:28.770Z,10.90
2022-07-26T12:53:44.399Z,17.10
2022-07-26T12:55:57.472Z,19.50
2022-07-26T12:58:11.240Z,21.80
2022-07-26T13:00:24.611Z,25.60
2022-07-26T13:02:37.698Z,26.50
2022-07-26T13:04:52.657Z,27.80
2022-07-26T13:07:07.986Z,15.60
2022-07-26T13:09:20.991Z,8.50
2022-07-26T13:11:34.352Z,7.30
2022-07-26T13:13:47.786Z,7.00
2022-07-26T13:16:00.865Z,4.90
2022-07-26T13:18:14.611Z,4.80
2022-07-26T13:20:27.748Z,4.30
2022-07-26T13:22:40.921Z,3.90
2022-07-26T13:24:54.159Z,3.70
2022-07-26T13:27:08.307Z,2.90
2022-07-26T13:29:21.339Z,2.50
2022-07-26T13:31:34.865Z,2.60
2022-07-26T13:33:48.012Z,2.30
2022-07-26T13:36:00.951Z,2.10
2022-07-26T13:38:13.947Z,2.10
2022-07-26T13:40:31.254Z,2.00
2022-07-26T13:42:44.923Z,2.70
2022-07-26T13:44:58.303Z,3.30
2022-07-26T13:47:11.438Z,3.10
2022-07-26T13:49:24.458Z,6.10
2022-07-26T13:51:55.665Z,6.90
2022-07-26T13:54:09.031Z,4.10
2022-07-26T13:56:22.042Z,4.30
2022-07-26T13:58:35.205Z,4.50
2022-07-26T14:00:48.493Z,4.90
2022-07-26T14:03:02.627Z,4.90
2022-07-26T14:05:16.188Z,7.90
2022-07-26T14:07:29.407Z,9.40
2022-07-26T14:09:42.351Z,9.80
2022-07-26T14:11:55.797Z,6.00
2022-07-26T14:14:09.831Z,5.10
2022-07-26T14:16:23.665Z,5.40
2022-07-26T14:18:36.708Z,7.50
2022-07-26T14:20:50.325Z,8.80
2022-07-26T14:23:03.569Z,7.40
2022-07-26T14:25:16.843Z,7.90
2022-07-26T14:27:29.851Z,6.80
2022-07-26T14:29:42.875Z,6.60
2022-07-26T14:31:56.002Z,6.30
2022-07-26T14:34:09.537Z,4.80
2022-07-26T14:36:22.702Z,12.20
2022-07-26T14:38:35.733Z,7.00
2022-07-26T14:40:48.909Z,6.70
2022-07-26T14:43:02.786Z,4.80
2022-07-26T14:45:16.972Z,7.10
2022-07-26T14:47:30.434Z,6.10
2022-07-26T14:49:43.521Z,6.70
2022-07-26T14:51:57.083Z,7.40
2022-07-26T14:54:11.103Z,7.40
2022-07-26T14:56:24.797Z,7.30
2022-07-26T14:58:37.865Z,12.70
2022-07-26T15:00:51.242Z,17.20
2022-07-26T15:03:04.841Z,15.60
2022-07-26T15:05:19.594Z,11.20
2022-07-26T15:07:32.780Z,2.30
2022-07-26T15:09:46.065Z,3.10
2022-07-26T15:11:59.431Z,2.70
2022-07-26T15:14:13.270Z,3.20
2022-07-26T15:16:27.218Z,2.90
2022-07-26T15:18:40.477Z,2.30
2022-07-26T15:20:53.691Z,2.70
2022-07-26T15:23:07.282Z,1.90
2022-07-26T15:25:21.959Z,2.30
2022-07-26T15:27:35.068Z,2.00
2022-07-26T15:29:49.782Z,2.10
2022-07-26T15:32:02.974Z,2.40
2022-07-26T15:34:16.387Z,2.80
2022-07-26T15:36:29.340Z,4.50
2022-07-26T15:38:46.313Z,5.20
2022-07-26T15:40:59.511Z,5.40
2022-07-26T15:43:13.325Z,6.80
2022-07-26T15:45:27.038Z,8.70
2022-07-26T15:48:01.299Z,7.90
2022-07-26T15:50:15.762Z,6.00
2022-07-26T15:52:28.937Z,6.00
2022-07-26T15:54:44.104Z,4.00
2022-07-26T15:56:57.574Z,4.30
2022-07-26T15:59:11.173Z,3.50
2022-07-26T16:01:24.443Z,3.60
2022-07-26T16:03:38.571Z,3.40
2022-07-26T16:05:53.148Z,4.20
2022-07-26T16:08:07.391Z,4.10
2022-07-26T16:10:20.593Z,3.20
2022-07-26T16:12:33.935Z,3.50
2022-07-26T16:14:47.780Z,4.60
2022-07-26T16:17:00.966Z,4.80
2022-07-26T16:19:14.205Z,4.70
2022-07-26T16:21:28.087Z,5.20
2022-07-26T16:23:41.386Z,4.30
2022-07-26T16:25:54.587Z,6.00
2022-07-26T16:28:07.882Z,3.60
2022-07-26T16:30:21.250Z,3.40
2022-07-26T16:32:34.389Z,3.80
2022-07-26T16:34:47.604Z,5.20
2022-07-26T16:37:00.574Z,5.90
2022-07-26T16:39:14.024Z,6.20
2022-07-26T16:41:27.529Z,4.50
2022-07-26T16:43:40.503Z,4.00
2022-07-26T16:45:53.684Z,3.60
2022-07-26T16:48:06.887Z,4.30
2022-07-26T16:50:27.171Z,3.50
2022-07-26T16:52:41.435Z,3.80
2022-07-26T16:54:54.510Z,3.40
2022-07-26T16:57:07.709Z,3.20
2022-07-26T16:59:20.853Z,2.20
2022-07-26T17:01:34.012Z,1.80
2022-07-26T17:03:47.053Z,2.40
2022-07-26T17:06:05.806Z,3.10
2022-07-26T17:08:19.591Z,1.80
2022-07-26T17:10:32.770Z,2.00
2022-07-26T17:12:45.777Z,2.20
2022-07-26T17:15:00.505Z,1.90
2022-07-26T17:17:13.720Z,2.00
2022-07-26T17:19:26.778Z,2.00
2022-07-26T17:21:39.922Z,2.60
2022-07-26T17:23:54.006Z,2.30
2022-07-26T17:26:07.030Z,2.30
2022-07-26T17:28:20.281Z,1.50
2022-07-26T17:30:33.376Z,3.00
2022-07-26T17:32:46.649Z,2.20
2022-07-26T17:34:59.712Z,2.50
2022-07-26T17:37:13.115Z,1.70
2022-07-26T17:39:40.360Z,1.90
2022-07-26T17:42:00.233Z,2.60
2022-07-26T17:44:13.612Z,2.40
2022-07-26T17:46:27.046Z,3.10
2022-07-26T17:48:40.304Z,2.00
2022-07-26T17:50:53.677Z,2.30
2022-07-26T17:53:06.698Z,1.70
2022-07-26T17:55:20.131Z,1.70
2022-07-26T17:57:33.600Z,2.00
2022-07-26T17:59:46.529Z,2.40
2022-07-26T18:01:59.597Z,1.60
2022-07-26T18:04:13.008Z,2.80
2022-07-26T18:06:26.046Z,2.30
2022-07-26T18:08:39.151Z,1.20
2022-07-26T18:10:52.283Z,2.50
2022-07-26T18:13:06.084Z,3.10
2022-07-26T18:15:19.357Z,1.90
2022-07-26T18:17:32.391Z,3.90
2022-07-26T18:19:45.367Z,2.40
2022-07-26T18:22:00.746Z,2.10
2022-07-26T18:24:17.544Z,1.70
2022-07-26T18:26:30.966Z,1.40
2022-07-26T18:28:44.171Z,1.70
2022-07-26T18:31:02.842Z,2.20
2022-07-26T18:33:15.820Z,1.60
2022-07-26T18:35:29.053Z,1.80
2022-07-26T18:37:41.992Z,1.40
2022-07-26T18:39:57.801Z,1.10
2022-07-26T18:42:11.514Z,1.50
2022-07-26T18:44:25.061Z,1.00
2022-07-26T18:46:38.155Z,1.30
2022-07-26T18:48:51.386Z,1.10
2022-07-26T18:51:04.357Z,2.50
2022-07-26T18:53:20.443Z,1.80
2022-07-26T18:55:34.031Z,1.20
2022-07-26T18:57:48.621Z,1.70
2022-07-26T19:00:02.212Z,1.20
2022-07-26T19:02:15.233Z,1.70
2022-07-26T19:04:28.596Z,1.40
2022-07-26T19:06:42.106Z,1.90
2022-07-26T19:08:55.130Z,1.50
2022-07-26T19:11:08.196Z,1.30
2022-07-26T19:13:21.916Z,1.70
2022-07-26T19:15:35.305Z,0.80
2022-07-26T19:17:48.584Z,1.70
2022-07-26T19:20:02.098Z,1.10
2022-07-26T19:22:15.096Z,1.30
2022-07-26T19:24:28.042Z,1.30
2022-07-26T19:26:41.001Z,1.10
2022-07-26T19:28:54.033Z,1.00
2022-07-26T19:31:07.377Z,1.30
2022-07-26T19:33:20.455Z,1.50
2022-07-26T19:35:33.906Z,1.20
2022-07-26T19:37:47.639Z,1.60
2022-07-26T19:40:02.372Z,1.10
2022-07-26T19:42:15.749Z,1.20
2022-07-26T19:44:28.866Z,1.30
2022-07-26T19:46:41.832Z,2.20
2022-07-26T19:48:55.035Z,1.50
2022-07-26T19:51:08.156Z,2.20
2022-07-26T19:53:21.244Z,1.60
2022-07-26T19:55:34.352Z,3.00
2022-07-26T19:57:47.469Z,2.00
2022-07-26T20:00:01.734Z,1.50
2022-07-26T20:02:24.113Z,1.50
2022-07-26T20:04:37.356Z,0.90
2022-07-26T20:06:50.351Z,1.50
2022-07-26T20:09:03.435Z,1.40
2022-07-26T20:11:16.696Z,1.90
2022-07-26T20:13:29.814Z,2.80
2022-07-26T20:15:43.075Z,1.90
2022-07-26T20:17:56.061Z,2.20
2022-07-26T20:20:10.363Z,2.70
2022-07-26T20:22:24.588Z,2.50
2022-07-26T20:24:39.355Z,1.80
2022-07-26T20:26:52.344Z,1.90
2022-07-26T20:29:05.501Z,1.80
2022-07-26T20:31:18.570Z,2.00
2022-07-26T20:33:31.599Z,1.90
2022-07-26T20:35:44.909Z,1.60
2022-07-26T20:37:57.945Z,0.80
2022-07-26T20:40:13.175Z,1.80
2022-07-26T20:42:28.602Z,3.40
2022-07-26T20:44:41.678Z,2.20
2022-07-26T20:46:55.733Z,3.30
2022-07-26T20:49:09.242Z,1.30
2022-07-26T20:51:22.787Z,1.90
2022-07-26T20:53:35.914Z,1.40
2022-07-26T20:55:49.121Z,1.90
2022-07-26T20:58:02.080Z,2.00
2022-07-26T21:00:18.018Z,1.40
2022-07-26T21:02:31.154Z,2.10
2022-07-26T21:04:44.562Z,1.90
2022-07-26T21:06:57.638Z,2.90
2022-07-26T21:09:11.415Z,2.70
2022-07-26T21:11:25.090Z,2.70
2022-07-26T21:13:38.703Z,3.20
2022-07-26T21:15:54.438Z,3.00
2022-07-26T21:18:07.664Z,1.60
2022-07-26T21:20:20.778Z,3.50
2022-07-26T21:22:33.910Z,2.70
2022-07-26T21:24:47.280Z,2.90
2022-07-26T21:27:00.252Z,2.50
2022-07-26T21:29:13.704Z,2.70
2022-07-26T21:31:27.045Z,3.70
2022-07-26T21:33:40.122Z,3.20
2022-07-26T21:35:53.146Z,3.00
2022-07-26T21:38:06.175Z,2.30
2022-07-26T21:40:20.259Z,1.90
2022-07-26T21:42:33.392Z,1.60
2022-07-26T21:44:46.427Z,1.80
2022-07-26T21:46:59.447Z,1.60
2022-07-26T21:49:12.788Z,2.00
2022-07-26T21:51:26.173Z,1.00
2022-07-26T21:53:39.256Z,1.00
2022-07-26T21:55:52.380Z,1.10
2022-07-26T21:58:05.489Z,0.90
2022-07-26T22:00:20.967Z,1.40
2022-07-26T22:02:34.246Z,1.80
2022-07-26T22:04:47.511Z,1.10
2022-07-26T22:07:01.057Z,0.70
2022-07-26T22:09:14.579Z,1.80
2022-07-26T22:11:27.901Z,2.20
2022-07-26T22:13:41.275Z,1.10
2022-07-26T22:15:54.686Z,1.30
2022-07-26T22:18:09.715Z,2.20
2022-07-26T22:20:23.044Z,1.60
2022-07-26T22:22:36.430Z,1.80
2022-07-26T22:24:49.418Z,1.80
2022-07-26T22:27:02.416Z,1.60
2022-07-26T22:29:15.804Z,1.30
2022-07-26T22:31:28.954Z,1.10
2022-07-26T22:33:42.025Z,0.70
2022-07-26T22:35:55.550Z,1.00
2022-07-26T22:38:10.227Z,1.60
2022-07-26T22:40:23.606Z,2.50
2022-07-26T22:42:36.707Z,1.00
2022-07-26T22:44:49.632Z,1.10
2022-07-26T22:47:02.673Z,2.00
2022-07-26T22:49:15.761Z,0.80
2022-07-26T22:51:29.014Z,1.10
2022-07-26T22:53:42.145Z,2.10
2022-07-26T22:55:55.391Z,1.30
2022-07-26T22:58:08.367Z,1.20
2022-07-26T23:00:23.662Z,0.90
2022-07-26T23:02:36.663Z,0.70
2022-07-26T23:04:49.733Z,1.20
2022-07-26T23:07:02.700Z,0.60
2022-07-26T23:09:17.648Z,0.80
2022-07-26T23:11:31.736Z,1.20
2022-07-26T23:13:45.044Z,1.20
2022-07-26T23:16:01.206Z,1.30
2022-07-26T23:18:14.784Z,0.90
2022-07-26T23:20:27.908Z,1.40
2022-07-26T23:22:43.030Z,2.00
2022-07-26T23:24:56.108Z,1.20
2022-07-26T23:27:09.479Z,2.10
2022-07-26T23:29:22.535Z,1.40
2022-07-26T23:31:35.591Z,1.00
2022-07-26T23:33:52.329Z,1.70
2022-07-26T23:36:07.497Z,0.90
2022-07-26T23:38:20.762Z,1.30
2022-07-26T23:40:33.986Z,1.10
2022-07-26T23:42:47.017Z,1.50
2022-07-26T23:44:59.969Z,1.70
2022-07-26T23:47:13.057Z,1.60
2022-07-26T23:49:26.120Z,1.30
2022-07-26T23:51:40.054Z,2.90
2022-07-26T23:53:53.294Z,2.80
2022-07-26T23:56:06.831Z,2.00
2022-07-26T23:58:19.876Z,2.10
